Latest Coastal Weather Observations for Ceduna

IDS60701

Issued at 11:01 pm CST Thursday 18 July 2024 (issued every 10 minutes, with the page automatically refreshed every 10 minutes)

About coastal observations | Map of coastal stations | Coastal observations for SA | Marine services | Other Formats
Station Details ID: 018012 Name: CEDUNA AMO Lat: -32.13 Lon: 133.70 Height: 15.3 m
Data from the previous 72 hours. | See also: Recent months at Ceduna
Date/Time
CST
Wind Sea
Height
m
Swell Vis
km
Cloud Weather Temp
°C
Press
MSL
hPa
Rain since
9am
mm
Dir  Spd
kts
Gust
kts
Height
m
Period
s
Dir
18/11:00pm N 13 18 - - - - 10 - - 12.9 1014.4 0.0
18/10:30pm N 13 17 - - - - 10 - - 13.5 1014.8 0.0
18/10:00pm N 13 17 - - - - 10 - - 13.6 1014.5 0.0
18/09:30pm N 15 19 - - - - 10 - - 13.8 1014.8 0.0
18/09:00pm NNE 11 14 - - - - 10 - - 13.2 1014.7 0.0
18/08:30pm NNE 9 12 - - - - 10 - - 12.7 1015.5 0.0
18/08:00pm N 9 11 - - - - 10 - - 12.7 1015.7 0.0
18/07:30pm NNE 8 10 - - - - 10 - - 13.1 1015.8 0.0
18/07:00pm N 8 10 - - - - 10 - - 13.4 1015.8 0.0
18/06:30pm N 10 12 - - - - 10 - - 14.7 1016.0 0.0
18/06:00pm N 11 13 - - - - 10 - - 15.6 1016.0 0.0
18/05:30pm N 12 15 - - - - 10 - - 16.3 1015.9 0.0
18/05:00pm N 11 14 - - - - 10 - - 16.6 1016.3 0.0
18/04:30pm N 13 19 - - - - 10 - - 16.7 1016.2 0.0
18/04:00pm N 14 19 - - - - 10 - - 17.7 1016.5 0.0
18/03:30pm N 14 19 - - - - 10 - - 16.8 1016.8 0.0
18/03:00pm N 14 19 - - - - 10 - - 17.2 1017.1 0.0
18/02:30pm N 15 21 - - - - 10 - - 16.2 1017.7 0.0
18/02:00pm NNW 15 20 - - - - 10 - - 15.8 1018.2 0.0
18/01:30pm N 14 19 - - - - 10 - - 15.6 1018.6 0.0
18/01:00pm N 15 21 - - - - 10 - - 15.4 1019.4 0.0
18/12:30pm N 15 21 - - - - 10 - - 14.8 1020.0 0.0
18/12:00pm N 15 18 - - - - 10 - - 14.4 1020.9 0.0
18/11:30am N 15 20 - - - - 10 - - 14.6 1021.9 0.0
18/11:00am N 15 19 - - - - 10 - - 13.1 1022.4 0.0
18/10:30am N 13 19 - - - - 10 - - 12.3 1022.9 0.0
18/10:00am N 12 17 - - - - 10 - - 11.0 1023.4 0.0
18/09:30am N 10 14 - - - - 10 - - 9.7 1023.4 0.0
18/09:00am N 8 11 - - - - 10 - - 9.0 1023.1 0.0
18/08:30am N 9 11 - - - - 10 - - 6.9 1022.9 0.0
18/08:00am N 7 9 - - - - 10 - - 5.9 1023.3 0.0
18/07:30am N 5 6 - - - - 10 - - 4.7 1023.4 0.0
18/07:00am N 5 5 - - - - 10 - - 4.3 1023.5 0.0
18/06:30am NNE 6 7 - - - - 10 - - 4.7 1023.2 0.0
18/06:00am N 7 9 - - - - 10 - - 5.0 1023.0 0.0
18/05:30am N 6 7 - - - - 10 - - 5.0 1023.4 0.0
18/05:00am N 4 4 - - - - 10 - - 5.1 1023.5 0.0
18/04:30am N 5 5 - - - - 10 - - 5.8 1023.6 0.0
18/04:00am N 5 6 - - - - 10 - - 6.0 1023.8 0.0
18/03:30am N 3 4 - - - - 10 - - 6.8 1024.0 0.0
18/03:00am N 3 4 - - - - 10 - - 7.5 1024.4 0.0
18/02:30am N 6 6 - - - - 10 - - 7.1 1024.6 0.0
18/02:00am N 4 6 - - - - 10 - - 5.8 1024.7 0.0
18/01:30am N 4 5 - - - - 10 - - 5.2 1024.6 0.0
18/01:00am N 4 5 - - - - 10 - - 6.6 1024.8 0.0
18/12:30am N 5 7 - - - - 10 - - 6.7 1025.1 0.0
18/12:00am SE 4 6 - - - - 10 - - 6.7 1025.4 0.0
 
Date/Time
CST
Wind Sea
Height
m
Swell Vis
km
Cloud Weather Temp
°C
Press
MSL
hPa
Rain since
9am
mm
Dir  Spd
kts
Gust
kts
Height
m
Period
s
Dir
17/11:30pm ESE 5 7 - - - - 10 - - 6.3 1025.4 0.0
17/11:00pm SE 4 5 - - - - 10 - - 4.8 1025.3 0.0
17/10:30pm SE 4 4 - - - - 10 - - 6.4 1025.3 0.0
17/10:00pm SSE 4 5 - - - - 10 - - 6.4 1025.3 0.0
17/09:30pm SSE 4 5 - - - - 10 - - 6.7 1025.1 0.0
17/09:00pm SSE 3 4 - - - - 10 - - 7.3 1025.1 0.0
17/08:30pm CALM 0 0 - - - - 10 - - 8.6 1025.2 0.0
17/08:00pm SSE 5 5 - - - - 10 - - 8.9 1025.2 0.0
17/07:30pm SSE 5 7 - - - - 10 - - 10.7 1025.4 0.0
17/07:00pm S 5 7 - - - - 10 - - 12.0 1025.5 0.0
17/06:30pm SSW 7 9 - - - - 10 - - 12.8 1025.1 0.0
17/06:00pm SSW 7 9 - - - - 10 - - 12.5 1025.0 0.0
17/05:30pm SSW 10 12 - - - - 10 - - 13.2 1024.8 0.0
17/05:00pm SSW 10 13 - - - - 10 - - 13.9 1024.6 0.0
17/04:30pm SSW 12 15 - - - - 10 - - 14.3 1024.4 0.0
17/04:00pm SSW 12 15 - - - - 10 - - 14.6 1024.2 0.0
17/03:30pm SSW 12 15 - - - - 10 - - 14.9 1023.7 0.0
17/03:00pm SSW 12 16 - - - - 10 - - 14.9 1023.5 0.0
17/02:30pm SSW 13 16 - - - - 10 - - 15.0 1023.3 0.0
17/02:00pm SSW 13 16 - - - - 10 - - 15.3 1023.4 0.0
17/01:30pm SSW 13 17 - - - - 10 - - 14.9 1023.7 0.0
17/01:00pm SSW 13 18 - - - - 10 - - 15.5 1024.1 0.0
17/12:30pm SSW 12 16 - - - - 10 - - 14.9 1024.3 0.0
17/12:00pm SSW 12 17 - - - - 10 - - 15.1 1024.9 0.0
17/11:30am SW 11 13 - - - - 10 - - 14.5 1025.4 0.0
17/11:00am SSW 13 16 - - - - 10 - - 14.1 1025.7 0.0
17/10:30am SSW 10 14 - - - - 10 - - 13.3 1025.7 0.0
17/10:00am S 11 20 - - - - 10 - - 12.6 1025.6 0.0
17/09:30am SSW 9 14 - - - - 10 - - 12.8 1025.4 0.0
17/09:00am SSW 8 11 - - - - 10 - Recent precip. 11.9 1024.9 2.2
17/08:30am S 7 13 - - - - 10 - - 10.7 1024.7 2.2
17/08:14am S 11 19 - - - - 10 - - 10.8 1024.5 2.2
17/08:00am S 4 6 - - - - 10 - - 9.4 1024.4 2.2
17/07:30am SSW 12 18 - - - - 10 - - 10.5 1024.3 2.2
17/07:00am CALM 0 0 - - - - 10 - - 6.2 1024.1 2.2
17/06:30am E 5 7 - - - - 10 - - 6.8 1023.8 2.2
17/06:00am E 4 6 - - - - 10 - Recent precip. 6.6 1023.4 2.2
17/05:30am E 5 6 - - - - 10 - - 8.0 1023.2 2.2
17/05:12am ESE 5 7 - - - - 6 - - 8.0 1023.2 2.0
17/05:00am S 4 5 - - - - 4 - - 8.2 1023.3 2.0
17/04:51am SSW 4 5 - - - - 5 - - 7.6 1023.4 2.0
17/04:30am SSW 1 3 - - - - 10 - - 8.7 1023.5 2.0
17/04:00am CALM 0 0 - - - - 10 - - 10.3 1023.8 2.0
17/03:31am SSW 4 6 - - - - 10 - - 10.5 1024.3 2.0
17/03:30am SSW 4 6 - - - - 10 - - 10.5 1024.3 2.0
17/03:10am WSW 6 10 - - - - 5 - - 10.4 1024.3 1.8
17/03:00am S 4 6 - - - - 10 - Recent precip. 10.3 1024.2 1.6
17/02:30am S 7 9 - - - - 10 - - 10.5 1024.3 1.6
17/02:09am WSW 5 6 - - - - 10 - - 10.2 1024.1 1.6
17/02:00am WSW 7 9 - - - - 6 - - 10.4 1024.2 1.6
17/01:36am WSW 10 19 - - - - 5 - - 10.4 1024.2 0.8
17/01:30am NW 4 16 - - - - 10 - - 9.6 1024.4 0.4
17/01:00am CALM 0 0 - - - - 10 - - 7.1 1024.2 0.4
17/12:30am CALM 0 0 - - - - 10 - - 7.5 1024.4 0.4
17/12:00am CALM 0 0 - - - - 10 - - 8.4 1024.5 0.4
 
Date/Time
CST
Wind Sea
Height
m
Swell Vis
km
Cloud Weather Temp
°C
Press
MSL
hPa
Rain since
9am
mm
Dir  Spd
kts
Gust
kts
Height
m
Period
s
Dir
16/11:30pm WNW 2 3 - - - - 10 - - 8.5 1024.8 0.4
16/11:00pm WSW 4 4 - - - - 10 - - 9.0 1024.9 0.4
16/10:30pm SW 5 7 - - - - 10 - - 10.0 1025.0 0.4
16/10:00pm SW 6 7 - - - - 10 - - 10.4 1025.1 0.4
16/09:30pm SW 7 9 - - - - 10 - - 10.8 1025.0 0.4
16/09:00pm SSW 5 8 - - - - 10 - Recent precip. 11.2 1025.0 0.4
16/08:30pm SSW 7 14 - - - - 10 - - 11.2 1024.9 0.4
16/08:00pm SSW 11 15 - - - - 10 - - 12.2 1024.7 0.4
16/07:30pm SW 7 9 - - - - 10 - - 11.8 1024.5 0.4
16/07:00pm SW 7 10 - - - - 10 - - 11.9 1024.4 0.4
16/06:30pm SW 8 10 - - - - 10 - - 12.2 1024.2 0.4
16/06:00pm SW 8 11 - - - - 10 - - 13.0 1023.9 0.4
16/05:30pm SSW 9 11 - - - - 10 - - 13.3 1023.8 0.4
16/05:00pm SSW 11 15 - - - - 10 - - 13.9 1023.6 0.4
16/04:30pm SSW 12 16 - - - - 10 - - 14.2 1023.4 0.4
16/04:00pm SSW 12 16 - - - - 10 - - 14.6 1023.3 0.4
16/03:30pm SSW 12 16 - - - - 10 - - 14.6 1023.2 0.4
16/03:00pm SSW 11 15 - - - - 10 - - 14.5 1023.2 0.4
16/02:30pm SSW 11 15 - - - - 10 - - 14.7 1023.3 0.4
16/02:00pm SSE 14 23 - - - - 10 - - 14.4 1023.5 0.4
16/01:30pm SSW 13 17 - - - - 10 - - 14.6 1023.7 0.4
16/01:00pm SSW 10 14 - - - - 10 - - 14.5 1024.2 0.4
16/12:30pm S 10 14 - - - - 10 - - 14.8 1024.7 0.4
16/12:00pm SSE 9 12 - - - - 10 - - 13.8 1025.1 0.4
16/11:30am SSW 10 12 - - - - 10 - - 14.5 1025.4 0.4
16/11:00am S 10 13 - - - - 10 - - 14.0 1025.4 0.4
16/10:30am S 11 17 - - - - 10 - - 12.2 1025.5 0.4
16/10:00am S 11 14 - - - - 10 - - 13.8 1025.2 0.0
16/09:30am S 8 12 - - - - 10 - - 12.4 1024.7 0.0
16/09:00am SE 4 8 - - - - 10 - Rain 11.1 1024.6 0.2
16/08:30am ESE 3 4 - - - - 10 - - 9.9 1024.0 0.2
16/08:00am ESE 4 5 - - - - 10 - - 8.7 1023.7 0.2
16/07:30am SSE 4 6 - - - - 10 - - 8.1 1023.3 0.2
16/07:00am CALM 0 4 - - - - 10 - - 7.4 1023.1 0.2
16/06:30am CALM 0 0 - - - - 10 - - 8.9 1022.8 0.2
16/06:00am S 3 4 - - - - 10 - - 9.8 1022.6 0.2
16/05:30am S 6 10 - - - - 10 - - 10.6 1022.5 0.2
16/05:00am SSE 9 13 - - - - 10 - - 10.6 1022.5 0.2
16/04:30am SSW 9 13 - - - - 10 - - 10.5 1022.5 0.2
16/04:00am SSE 9 12 - - - - 10 - - 10.3 1022.5 0.2
16/03:30am SW 8 11 - - - - 10 - - 11.0 1022.2 0.2
16/03:00am SW 10 12 - - - - 10 - - 10.8 1022.1 0.2
16/02:30am SW 9 12 - - - - 10 - - 11.2 1022.0 0.2
16/02:00am SSW 8 11 - - - - 10 - - 11.3 1022.2 0.2
16/01:30am SSW 9 12 - - - - 10 - - 11.7 1022.2 0.2
16/01:00am SSW 9 11 - - - - 10 - - 11.7 1022.2 0.2
16/12:30am SSW 9 12 - - - - 10 - - 12.3 1022.3 0.2
16/12:00am SSW 7 9 - - - - 10 - - 10.8 1022.5 0.2
 
Date/Time
CST
Wind Sea
Height
m
Swell Vis
km
Cloud Weather Temp
°C
Press
MSL
hPa
Rain since
9am
mm
Dir  Spd
kts
Gust
kts
Height
m
Period
s
Dir
15/11:30pm S 11 14 - - - - 10 - - 11.7 1022.5 0.2

Other formats

Comma delimited format used in spreadsheet applications
http://www.bom.gov.au/fwo/IDS60701/IDS60701.94653.axf

JavaScript Object Notation format (JSON) in row-major order
http://www.bom.gov.au/fwo/IDS60701/IDS60701.94653.json

Data quality

Most of these data are generated automatically and are frequently updated. Quality checks on data are not normally performed. It is possible for incorrect values to appear. Refer to information at About Latest Weather Observations and please check the disclaimer before using these data.